createdAt,value
2023-01-13T00:01:50.508Z,1024.51
2023-01-13T00:04:18.717Z,1024.40
2023-01-13T00:06:45.512Z,1024.45
2023-01-13T00:09:12.331Z,1024.58
2023-01-13T00:11:39.072Z,1024.49
2023-01-13T00:14:05.936Z,1024.61
2023-01-13T00:16:32.844Z,1024.62
2023-01-13T00:18:59.640Z,1024.53
2023-01-13T00:21:27.855Z,1024.48
2023-01-13T00:23:56.158Z,1024.47
2023-01-13T00:26:24.892Z,1024.52
2023-01-13T00:28:55.809Z,1024.47
2023-01-13T00:31:22.635Z,1024.54
2023-01-13T00:33:49.519Z,1024.58
2023-01-13T00:36:17.594Z,1024.42
2023-01-13T00:38:45.995Z,1024.35
2023-01-13T00:41:14.741Z,1024.39
2023-01-13T00:43:42.379Z,1024.34
2023-01-13T00:46:10.793Z,1024.31
2023-01-13T00:48:38.206Z,1024.32
2023-01-13T00:51:07.172Z,1024.21
2023-01-13T00:53:36.706Z,1024.25
2023-01-13T00:56:07.026Z,1024.32
2023-01-13T00:58:35.268Z,1024.29
2023-01-13T01:01:02.485Z,1024.25
2023-01-13T01:03:29.424Z,1024.18
2023-01-13T01:05:56.318Z,1024.13
2023-01-13T01:08:23.219Z,1024.02
2023-01-13T01:10:50.007Z,1023.99
2023-01-13T01:13:18.207Z,1024.08
2023-01-13T01:15:45.018Z,1024.00
2023-01-13T01:18:11.786Z,1024.08
2023-01-13T01:20:38.594Z,1024.00
2023-01-13T01:23:05.444Z,1024.02
2023-01-13T01:25:32.918Z,1024.09
2023-01-13T01:28:00.159Z,1023.90
2023-01-13T01:30:28.285Z,1023.85
2023-01-13T01:32:55.042Z,1023.68
2023-01-13T01:35:21.826Z,1023.72
2023-01-13T01:37:48.619Z,1023.69
2023-01-13T01:40:15.761Z,1023.64
2023-01-13T01:42:42.539Z,1023.64
2023-01-13T01:45:17.533Z,1023.67
2023-01-13T01:47:47.567Z,1023.55
2023-01-13T01:50:14.990Z,1023.47
2023-01-13T01:52:44.361Z,1023.38
2023-01-13T01:55:15.909Z,1023.34
2023-01-13T01:57:47.898Z,1023.28
2023-01-13T02:00:15.135Z,1023.41
2023-01-13T02:02:46.444Z,1023.40
2023-01-13T02:05:14.029Z,1023.32
2023-01-13T02:07:42.970Z,1023.40
2023-01-13T02:10:12.726Z,1023.31
2023-01-13T02:12:40.381Z,1023.31
2023-01-13T02:15:09.957Z,1023.36
2023-01-13T02:17:59.823Z,1023.49
2023-01-13T02:20:44.831Z,1023.44
2023-01-13T02:23:54.691Z,1023.26
2023-01-13T02:27:02.337Z,1023.39
2023-01-13T02:29:48.491Z,1023.33
2023-01-13T02:32:19.805Z,1023.31
2023-01-13T02:34:56.321Z,1023.32
2023-01-13T02:37:28.590Z,1023.20
2023-01-13T02:40:00.211Z,1023.22
2023-01-13T02:42:31.484Z,1023.13
2023-01-13T02:45:06.819Z,1023.19
2023-01-13T02:47:39.012Z,1023.18
2023-01-13T02:50:10.192Z,1023.26
2023-01-13T02:52:41.683Z,1023.31
2023-01-13T02:55:12.965Z,1023.18
2023-01-13T02:57:41.361Z,1023.15
2023-01-13T03:00:13.401Z,1023.06
2023-01-13T03:02:40.362Z,1022.97
2023-01-13T03:05:07.566Z,1023.02
2023-01-13T03:07:57.270Z,1023.03
2023-01-13T03:10:46.947Z,1022.84
2023-01-13T03:13:25.546Z,1022.65
2023-01-13T03:16:05.071Z,1022.74
2023-01-13T03:18:43.057Z,1022.94
2023-01-13T03:21:19.709Z,1022.96
2023-01-13T03:23:51.569Z,1023.08
2023-01-13T03:26:24.815Z,1023.00
2023-01-13T03:28:57.484Z,1023.11
2023-01-13T03:31:31.356Z,1022.90
2023-01-13T03:34:03.527Z,1022.88
2023-01-13T03:36:32.418Z,1022.75
2023-01-13T03:39:05.129Z,1022.85
2023-01-13T03:41:36.800Z,1022.90
2023-01-13T03:44:10.438Z,1022.89
2023-01-13T03:46:44.922Z,1022.92
2023-01-13T03:49:18.513Z,1022.89
2023-01-13T03:51:51.576Z,1022.79
2023-01-13T03:54:21.200Z,1022.65
2023-01-13T03:56:54.645Z,1022.57
2023-01-13T03:59:26.718Z,1022.48
2023-01-13T04:02:02.255Z,1022.45
2023-01-13T04:04:34.352Z,1022.55
2023-01-13T04:07:09.808Z,1022.60
2023-01-13T04:09:42.871Z,1022.54
2023-01-13T04:12:14.293Z,1022.52
2023-01-13T04:14:42.282Z,1022.61
2023-01-13T04:17:10.507Z,1022.65
2023-01-13T04:19:37.371Z,1022.62
2023-01-13T04:22:04.271Z,1022.55
2023-01-13T04:24:31.108Z,1022.57
2023-01-13T04:26:57.918Z,1022.66
2023-01-13T04:29:24.704Z,1022.75
2023-01-13T04:31:51.416Z,1022.76
2023-01-13T04:34:19.636Z,1022.76
2023-01-13T04:36:46.385Z,1022.80
2023-01-13T04:39:13.285Z,1022.92
2023-01-13T04:41:40.053Z,1023.00
2023-01-13T04:44:07.007Z,1022.97
2023-01-13T04:46:33.993Z,1022.97
2023-01-13T04:49:00.821Z,1022.96
2023-01-13T04:51:28.987Z,1022.83
2023-01-13T04:53:55.838Z,1022.87
2023-01-13T04:56:22.631Z,1023.02
2023-01-13T04:58:49.480Z,1022.88
2023-01-13T05:01:16.279Z,1022.80
2023-01-13T05:03:43.143Z,1022.70
2023-01-13T05:06:09.952Z,1022.71
2023-01-13T05:08:38.079Z,1022.83
2023-01-13T05:11:05.028Z,1022.94
2023-01-13T05:13:31.792Z,1023.04
2023-01-13T05:16:01.024Z,1023.02
2023-01-13T05:18:29.660Z,1023.04
2023-01-13T05:20:56.997Z,1023.01
2023-01-13T05:23:23.767Z,1022.97
2023-01-13T05:25:52.207Z,1022.85
2023-01-13T05:28:18.948Z,1022.99
2023-01-13T05:30:47.360Z,1022.99
2023-01-13T05:33:16.859Z,1023.02
2023-01-13T05:35:45.389Z,1023.01
2023-01-13T05:38:13.252Z,1022.98
2023-01-13T05:40:41.176Z,1023.04
2023-01-13T05:43:12.040Z,1023.06
2023-01-13T05:45:38.872Z,1022.92
2023-01-13T05:48:05.873Z,1023.01
2023-01-13T05:50:32.698Z,1022.90
2023-01-13T05:52:59.482Z,1023.00
2023-01-13T05:55:26.308Z,1022.91
2023-01-13T05:57:53.102Z,1022.83
2023-01-13T06:00:21.870Z,1022.96
2023-01-13T06:02:48.648Z,1023.09
2023-01-13T06:05:15.796Z,1023.04
2023-01-13T06:07:42.524Z,1023.15
2023-01-13T06:10:10.630Z,1023.21
2023-01-13T06:12:37.413Z,1023.15
2023-01-13T06:15:05.027Z,1023.20
2023-01-13T06:17:33.155Z,1023.11
2023-01-13T06:19:59.968Z,1023.02
2023-01-13T06:22:28.751Z,1022.92
2023-01-13T06:24:55.521Z,1022.92
2023-01-13T06:27:23.026Z,1022.89
2023-01-13T06:29:49.804Z,1022.89
2023-01-13T06:32:19.139Z,1022.84
2023-01-13T06:34:53.314Z,1022.78
2023-01-13T06:37:23.097Z,1022.84
2023-01-13T06:39:49.852Z,1022.77
2023-01-13T06:42:16.882Z,1022.81
2023-01-13T06:44:44.487Z,1022.59
2023-01-13T06:47:11.479Z,1022.60
2023-01-13T06:49:38.289Z,1022.69
2023-01-13T06:52:06.686Z,1022.73
2023-01-13T06:54:33.419Z,1022.75
2023-01-13T06:57:00.550Z,1022.80
2023-01-13T06:59:27.442Z,1022.81
2023-01-13T07:01:54.345Z,1022.72
2023-01-13T07:04:21.388Z,1022.73
2023-01-13T07:06:48.427Z,1022.77
2023-01-13T07:09:16.980Z,1022.87
2023-01-13T07:11:43.892Z,1022.96
2023-01-13T07:14:10.674Z,1023.13
2023-01-13T07:16:37.666Z,1023.03
2023-01-13T07:19:04.488Z,1022.88
2023-01-13T07:21:31.488Z,1022.85
2023-01-13T07:23:58.674Z,1022.80
2023-01-13T07:26:27.899Z,1022.76
2023-01-13T07:28:54.901Z,1022.96
2023-01-13T07:31:22.171Z,1023.02
2023-01-13T07:33:49.607Z,1022.88
2023-01-13T07:36:16.563Z,1023.01
2023-01-13T07:38:43.748Z,1022.95
2023-01-13T07:41:13.149Z,1022.87
2023-01-13T07:43:41.363Z,1022.94
2023-01-13T07:46:08.242Z,1022.94
2023-01-13T07:48:35.306Z,1022.75
2023-01-13T07:51:02.814Z,1022.56
2023-01-13T07:53:29.748Z,1022.53
2023-01-13T07:55:57.057Z,1022.47
2023-01-13T07:58:24.180Z,1022.52
2023-01-13T08:00:52.873Z,1022.68
2023-01-13T08:03:19.721Z,1022.64
2023-01-13T08:05:46.905Z,1022.59
2023-01-13T08:08:13.777Z,1022.41
2023-01-13T08:10:40.712Z,1022.26
2023-01-13T08:13:10.595Z,1022.14
2023-01-13T08:15:37.456Z,1022.14
2023-01-13T08:18:05.803Z,1022.19
2023-01-13T08:20:32.738Z,1022.35
2023-01-13T08:23:00.416Z,1022.56
2023-01-13T08:25:28.720Z,1022.53
2023-01-13T08:27:56.607Z,1022.64
2023-01-13T08:30:23.692Z,1022.74
2023-01-13T08:32:50.926Z,1022.75
2023-01-13T08:35:19.404Z,1022.63
2023-01-13T08:37:47.162Z,1022.64
2023-01-13T08:40:16.222Z,1022.60
2023-01-13T08:42:43.013Z,1022.58
2023-01-13T08:45:11.111Z,1022.49
2023-01-13T08:47:37.848Z,1022.32
2023-01-13T08:50:06.282Z,1022.20
2023-01-13T08:52:34.491Z,1022.06
2023-01-13T08:55:01.373Z,1022.12
2023-01-13T08:57:28.209Z,1022.08
2023-01-13T08:59:55.151Z,1022.10
2023-01-13T09:02:23.597Z,1022.16
2023-01-13T09:04:50.773Z,1022.23
2023-01-13T09:07:17.916Z,1022.15
2023-01-13T09:09:46.049Z,1022.14
2023-01-13T09:12:13.654Z,1021.89
2023-01-13T09:14:40.552Z,1021.79
2023-01-13T09:17:07.466Z,1021.80
2023-01-13T09:19:34.528Z,1021.72
2023-01-13T09:22:01.454Z,1021.64
2023-01-13T09:24:28.635Z,1021.55
2023-01-13T09:26:56.899Z,1021.53
2023-01-13T09:29:23.886Z,1021.57
2023-01-13T09:31:50.983Z,1021.60
2023-01-13T09:34:20.403Z,1021.47
2023-01-13T09:36:47.342Z,1021.46
2023-01-13T09:39:14.399Z,1021.41
2023-01-13T09:41:43.961Z,1021.42
2023-01-13T09:44:18.115Z,1021.25
2023-01-13T09:46:49.731Z,1021.09
2023-01-13T09:49:21.653Z,1020.94
2023-01-13T09:51:55.197Z,1020.89
2023-01-13T09:54:29.291Z,1020.81
2023-01-13T09:56:57.100Z,1020.63
2023-01-13T09:59:29.314Z,1020.62
2023-01-13T10:02:04.053Z,1020.60
2023-01-13T10:04:30.960Z,1020.58
2023-01-13T10:07:01.760Z,1020.62
2023-01-13T10:09:39.745Z,1020.60
2023-01-13T10:12:14.557Z,1020.65
2023-01-13T10:14:51.561Z,1020.69
2023-01-13T10:17:24.001Z,1020.57
2023-01-13T10:19:56.007Z,1020.50
2023-01-13T10:22:41.170Z,1020.42
2023-01-13T10:25:34.671Z,1020.31
2023-01-13T10:28:08.521Z,1020.24
2023-01-13T10:30:39.018Z,1020.15
2023-01-13T10:33:11.646Z,1020.14
2023-01-13T10:36:03.594Z,1020.14
2023-01-13T10:38:38.163Z,1020.03
2023-01-13T10:41:09.582Z,1020.07
2023-01-13T10:43:36.421Z,1020.10
2023-01-13T10:46:10.117Z,1020.07
2023-01-13T10:48:40.185Z,1020.00
2023-01-13T10:51:18.027Z,1019.95
2023-01-13T10:53:50.010Z,1019.85
2023-01-13T10:56:18.960Z,1019.82
2023-01-13T10:58:45.793Z,1019.71
2023-01-13T11:01:24.272Z,1019.64
2023-01-13T11:03:51.742Z,1019.59
2023-01-13T11:06:24.014Z,1019.55
2023-01-13T11:08:53.620Z,1019.43
2023-01-13T11:11:28.069Z,1019.38
2023-01-13T11:14:00.924Z,1019.43
2023-01-13T11:16:29.104Z,1019.41
2023-01-13T11:19:00.754Z,1019.40
2023-01-13T11:21:33.295Z,1019.46
2023-01-13T11:24:06.708Z,1019.43
2023-01-13T11:26:41.046Z,1019.53
2023-01-13T11:29:11.210Z,1019.58
2023-01-13T11:31:47.229Z,1019.58
2023-01-13T11:34:25.555Z,1019.57
2023-01-13T11:36:55.237Z,1019.60
2023-01-13T11:39:27.459Z,1019.58
2023-01-13T11:42:01.243Z,1019.62
2023-01-13T11:44:36.088Z,1019.59
2023-01-13T11:47:04.324Z,1019.51
2023-01-13T11:49:33.092Z,1019.47
2023-01-13T11:52:06.481Z,1019.45
2023-01-13T11:54:53.321Z,1019.34
2023-01-13T11:57:42.521Z,1019.25
2023-01-13T12:00:32.850Z,1019.38
2023-01-13T12:03:20.433Z,1019.34
2023-01-13T12:06:02.725Z,1019.33
2023-01-13T12:08:52.067Z,1019.32
2023-01-13T12:11:25.717Z,1019.17
2023-01-13T12:14:06.950Z,1019.00
2023-01-13T12:16:33.829Z,1018.85
2023-01-13T12:19:27.355Z,1018.93
2023-01-13T12:22:08.829Z,1018.94
2023-01-13T12:24:41.381Z,1018.94
2023-01-13T12:27:17.229Z,1018.83
2023-01-13T12:29:46.860Z,1018.91
2023-01-13T12:32:16.750Z,1018.87
2023-01-13T12:35:03.489Z,1018.90
2023-01-13T12:37:38.985Z,1018.88
2023-01-13T12:40:20.642Z,1018.89
2023-01-13T12:42:55.589Z,1018.91
2023-01-13T12:45:28.440Z,1018.87
2023-01-13T12:47:58.088Z,1018.81
2023-01-13T12:50:42.829Z,1018.81
2023-01-13T12:53:33.166Z,1018.70
2023-01-13T12:56:39.465Z,1018.65
2023-01-13T12:59:34.327Z,1018.60
2023-01-13T13:02:30.197Z,1018.43
2023-01-13T13:04:58.668Z,1018.45
2023-01-13T13:07:38.001Z,1018.39
2023-01-13T13:10:16.466Z,1018.43
2023-01-13T13:12:53.361Z,1018.43
2023-01-13T13:15:21.924Z,1018.43
2023-01-13T13:18:06.451Z,1018.32
2023-01-13T13:20:53.276Z,1018.39
2023-01-13T13:23:57.601Z,1018.37
2023-01-13T13:26:35.842Z,1018.41
2023-01-13T13:29:48.625Z,1018.34
2023-01-13T13:32:47.390Z,1018.24
2023-01-13T13:35:35.591Z,1018.36
2023-01-13T13:38:18.387Z,1018.31
2023-01-13T13:40:47.675Z,1018.36
2023-01-13T13:43:15.421Z,1018.32
2023-01-13T13:45:50.473Z,1018.38
2023-01-13T13:48:26.366Z,1018.36
2023-01-13T13:50:55.014Z,1018.45
2023-01-13T13:53:23.948Z,1018.45
2023-01-13T13:55:57.538Z,1018.51
2023-01-13T13:58:26.430Z,1018.45
2023-01-13T14:00:54.691Z,1018.43
2023-01-13T14:03:24.001Z,1018.37
2023-01-13T14:05:56.543Z,1018.41
2023-01-13T14:08:24.445Z,1018.38
2023-01-13T14:10:51.628Z,1018.47
2023-01-13T14:13:22.595Z,1018.44
2023-01-13T14:15:54.883Z,1018.53
2023-01-13T14:18:22.545Z,1018.56
2023-01-13T14:20:53.723Z,1018.61
2023-01-13T14:23:27.154Z,1018.61
2023-01-13T14:25:54.314Z,1018.75
2023-01-13T14:28:26.746Z,1018.79
2023-01-13T14:30:55.083Z,1018.86
2023-01-13T14:33:31.949Z,1018.86
2023-01-13T14:36:14.930Z,1018.85
2023-01-13T14:38:43.472Z,1018.84
2023-01-13T14:41:15.984Z,1018.85
2023-01-13T14:43:45.961Z,1018.80
2023-01-13T14:46:13.207Z,1018.74
2023-01-13T14:48:42.078Z,1018.69
2023-01-13T14:51:12.497Z,1018.68
2023-01-13T14:53:40.997Z,1018.52
2023-01-13T14:56:47.444Z,1018.57
2023-01-13T14:59:49.863Z,1018.47
2023-01-13T15:02:49.679Z,1018.35
2023-01-13T15:05:36.203Z,1018.47
2023-01-13T15:08:20.374Z,1018.63
2023-01-13T15:10:49.029Z,1018.65
2023-01-13T15:13:26.304Z,1018.75
2023-01-13T15:15:55.720Z,1018.90
2023-01-13T15:18:23.944Z,1019.01
2023-01-13T15:20:50.768Z,1019.02
2023-01-13T15:23:18.376Z,1019.18
2023-01-13T15:25:46.049Z,1019.35
2023-01-13T15:28:18.089Z,1019.42
2023-01-13T15:30:45.387Z,1019.39
2023-01-13T15:33:13.929Z,1019.51
2023-01-13T15:35:44.922Z,1019.63
2023-01-13T15:38:13.013Z,1019.78
2023-01-13T15:40:40.593Z,1019.81
2023-01-13T15:43:13.265Z,1019.74
2023-01-13T15:45:41.104Z,1019.73
2023-01-13T15:48:07.906Z,1019.81
2023-01-13T15:50:34.718Z,1019.92
2023-01-13T15:53:03.126Z,1019.97
2023-01-13T15:55:30.183Z,1019.92
2023-01-13T15:57:56.932Z,1020.05
2023-01-13T16:00:23.856Z,1020.16
2023-01-13T16:02:51.301Z,1020.35
2023-01-13T16:05:18.281Z,1020.23
2023-01-13T16:07:45.191Z,1020.24
2023-01-13T16:10:20.400Z,1020.27
2023-01-13T16:12:47.148Z,1020.51
2023-01-13T16:15:14.456Z,1020.50
2023-01-13T16:17:43.225Z,1020.50
2023-01-13T16:20:13.703Z,1020.63
2023-01-13T16:22:40.558Z,1020.63
2023-01-13T16:25:09.907Z,1020.68
2023-01-13T16:27:38.095Z,1020.70
2023-01-13T16:30:05.998Z,1020.73
2023-01-13T16:32:32.957Z,1020.76
2023-01-13T16:34:59.867Z,1020.78
2023-01-13T16:37:27.463Z,1020.62
2023-01-13T16:39:55.162Z,1020.75
2023-01-13T16:42:22.134Z,1020.68
2023-01-13T16:44:50.454Z,1020.73
2023-01-13T16:47:18.199Z,1020.80
2023-01-13T16:49:45.647Z,1020.82
2023-01-13T16:52:12.550Z,1020.63
2023-01-13T16:54:39.366Z,1020.71
2023-01-13T16:57:07.172Z,1020.75
2023-01-13T16:59:35.428Z,1020.86
2023-01-13T17:02:05.002Z,1020.95
2023-01-13T17:04:31.859Z,1021.07
2023-01-13T17:07:03.565Z,1021.14
2023-01-13T17:09:31.492Z,1021.27
2023-01-13T17:11:58.436Z,1021.30
2023-01-13T17:14:25.888Z,1021.42
2023-01-13T17:16:54.697Z,1021.54
2023-01-13T17:19:23.832Z,1021.74
2023-01-13T17:21:50.648Z,1021.64
2023-01-13T17:24:17.529Z,1021.62
2023-01-13T17:26:46.685Z,1021.62
2023-01-13T17:29:17.029Z,1021.76
2023-01-13T17:31:43.895Z,1021.70
2023-01-13T17:34:12.345Z,1021.64
2023-01-13T17:36:41.428Z,1021.62
2023-01-13T17:39:09.381Z,1021.67
2023-01-13T17:41:36.130Z,1021.66
2023-01-13T17:44:03.041Z,1021.72
2023-01-13T17:46:29.752Z,1021.78
2023-01-13T17:48:56.456Z,1021.84
2023-01-13T17:51:23.291Z,1021.96
2023-01-13T17:53:52.958Z,1021.96
2023-01-13T17:56:19.794Z,1021.93
2023-01-13T17:58:46.523Z,1022.08
2023-01-13T18:01:15.122Z,1022.19
2023-01-13T18:03:42.372Z,1022.01
2023-01-13T18:06:14.189Z,1021.86
2023-01-13T18:08:40.904Z,1021.95
2023-01-13T18:11:09.188Z,1021.99
2023-01-13T18:13:36.184Z,1022.10
2023-01-13T18:16:04.946Z,1022.09
2023-01-13T18:18:31.698Z,1022.10
2023-01-13T18:20:58.617Z,1022.07
2023-01-13T18:23:25.370Z,1022.16
2023-01-13T18:25:53.492Z,1022.19
2023-01-13T18:28:21.630Z,1022.20
2023-01-13T18:30:48.510Z,1022.19
2023-01-13T18:33:15.352Z,1022.33
2023-01-13T18:35:42.164Z,1022.46
2023-01-13T18:38:08.953Z,1022.35
2023-01-13T18:40:35.661Z,1022.50
2023-01-13T18:43:02.395Z,1022.71
2023-01-13T18:45:32.661Z,1022.71
2023-01-13T18:48:01.070Z,1022.73
2023-01-13T18:50:27.945Z,1022.85
2023-01-13T18:52:55.044Z,1022.79
2023-01-13T18:55:24.329Z,1022.80
2023-01-13T18:57:52.669Z,1022.77
2023-01-13T19:00:21.213Z,1022.63
2023-01-13T19:02:50.243Z,1022.63
2023-01-13T19:05:17.136Z,1022.71
2023-01-13T19:07:44.253Z,1022.72
2023-01-13T19:10:12.367Z,1023.04
2023-01-13T19:12:39.128Z,1023.14
2023-01-13T19:15:07.039Z,1023.27
2023-01-13T19:17:34.955Z,1023.44
2023-01-13T19:20:04.029Z,1023.49
2023-01-13T19:22:32.367Z,1023.52
2023-01-13T19:24:59.944Z,1023.63
2023-01-13T19:27:27.062Z,1023.67
2023-01-13T19:29:54.122Z,1023.80
2023-01-13T19:32:21.940Z,1023.91
2023-01-13T19:34:49.715Z,1024.04
2023-01-13T19:37:18.172Z,1023.99
2023-01-13T19:39:45.074Z,1023.99
2023-01-13T19:42:12.044Z,1023.95
2023-01-13T19:44:38.772Z,1023.97
2023-01-13T19:47:05.767Z,1023.99
2023-01-13T19:49:32.755Z,1024.05
2023-01-13T19:51:59.530Z,1024.06
2023-01-13T19:54:27.861Z,1024.12
2023-01-13T19:56:54.583Z,1024.12
2023-01-13T19:59:21.648Z,1024.21
2023-01-13T20:01:48.676Z,1024.30
2023-01-13T20:04:15.455Z,1024.32
2023-01-13T20:06:43.177Z,1024.23
2023-01-13T20:09:09.981Z,1024.27
2023-01-13T20:11:38.238Z,1024.28
2023-01-13T20:14:05.008Z,1024.24
2023-01-13T20:16:31.951Z,1024.15
2023-01-13T20:18:58.697Z,1023.91
2023-01-13T20:21:25.496Z,1023.84
2023-01-13T20:23:53.098Z,1023.57
2023-01-13T20:26:20.489Z,1023.49
2023-01-13T20:28:48.658Z,1023.44
2023-01-13T20:31:15.892Z,1023.52
2023-01-13T20:33:42.924Z,1023.51
2023-01-13T20:36:22.500Z,1023.53
2023-01-13T20:38:49.326Z,1023.44
2023-01-13T20:41:16.164Z,1023.45
2023-01-13T20:43:42.969Z,1023.45
2023-01-13T20:46:11.111Z,1023.35
2023-01-13T20:48:38.342Z,1023.23
2023-01-13T20:51:05.318Z,1023.21
2023-01-13T20:53:32.074Z,1023.13
2023-01-13T20:55:58.820Z,1023.25
2023-01-13T20:58:25.569Z,1023.46
2023-01-13T21:00:52.383Z,1023.60
2023-01-13T21:03:21.575Z,1023.53
2023-01-13T21:05:48.465Z,1023.53
2023-01-13T21:08:15.312Z,1023.67
2023-01-13T21:10:42.085Z,1023.78
2023-01-13T21:13:10.115Z,1023.81
2023-01-13T21:15:36.907Z,1023.81
2023-01-13T21:18:03.955Z,1023.77
2023-01-13T21:20:32.903Z,1023.73
2023-01-13T21:23:01.327Z,1023.74
2023-01-13T21:25:28.821Z,1023.88
2023-01-13T21:27:57.059Z,1023.81
2023-01-13T21:30:23.871Z,1023.80
2023-01-13T21:32:50.697Z,1023.85
2023-01-13T21:35:17.527Z,1023.89
2023-01-13T21:37:45.715Z,1024.01
2023-01-13T21:40:14.368Z,1024.17
2023-01-13T21:42:41.612Z,1024.38
2023-01-13T21:45:10.128Z,1024.43
2023-01-13T21:47:36.982Z,1024.31
2023-01-13T21:50:07.037Z,1024.31
2023-01-13T21:52:33.812Z,1024.26
2023-01-13T21:55:02.269Z,1024.34
2023-01-13T21:57:29.046Z,1024.39
2023-01-13T21:59:55.875Z,1024.35
2023-01-13T22:02:24.712Z,1024.40
2023-01-13T22:04:51.952Z,1024.50
2023-01-13T22:07:19.222Z,1024.47
2023-01-13T22:09:46.028Z,1024.59
2023-01-13T22:12:15.328Z,1024.69
2023-01-13T22:14:42.223Z,1024.70
2023-01-13T22:17:09.016Z,1024.78
2023-01-13T22:19:35.923Z,1024.81
2023-01-13T22:22:02.728Z,1024.87
2023-01-13T22:24:29.614Z,1024.89
2023-01-13T22:26:56.390Z,1024.87
2023-01-13T22:29:24.597Z,1024.77
2023-01-13T22:31:51.501Z,1024.67
2023-01-13T22:34:18.342Z,1024.72
2023-01-13T22:36:45.176Z,1024.89
2023-01-13T22:39:11.940Z,1024.93
2023-01-13T22:41:38.797Z,1024.93
2023-01-13T22:44:05.710Z,1025.01
2023-01-13T22:46:33.839Z,1024.97
2023-01-13T22:49:00.595Z,1025.00
2023-01-13T22:51:27.440Z,1024.92
2023-01-13T22:53:54.643Z,1024.80
2023-01-13T22:56:23.371Z,1024.82
2023-01-13T22:58:53.707Z,1024.81
2023-01-13T23:01:20.524Z,1024.80
2023-01-13T23:03:48.894Z,1024.82
2023-01-13T23:06:16.923Z,1024.88
2023-01-13T23:08:43.993Z,1024.73
2023-01-13T23:11:12.812Z,1024.66
2023-01-13T23:13:39.993Z,1024.65
2023-01-13T23:16:09.676Z,1024.62
2023-01-13T23:18:36.430Z,1024.64
2023-01-13T23:21:06.484Z,1024.80
2023-01-13T23:23:34.279Z,1025.14
2023-01-13T23:26:01.298Z,1025.22
2023-01-13T23:28:28.512Z,1025.00
2023-01-13T23:30:55.339Z,1024.92
2023-01-13T23:33:22.190Z,1025.01
2023-01-13T23:35:55.798Z,1024.98
2023-01-13T23:38:24.255Z,1024.89
2023-01-13T23:40:51.064Z,1024.90
2023-01-13T23:43:17.899Z,1024.90
2023-01-13T23:45:44.732Z,1024.89
2023-01-13T23:48:11.668Z,1024.84
2023-01-13T23:50:38.491Z,1024.84
2023-01-13T23:53:05.257Z,1024.88
2023-01-13T23:55:33.701Z,1024.95
2023-01-13T23:58:00.481Z,1024.86
